Time;durP1;ratioP1;P1;durP2;ratioP2;P2;SDS_P1;SDS_P2;PMS_P1;PMS_P2;Temp;Humidity;BMP_temperature;BMP_pressure;BME280_temperature;BME280_humidity;BME280_pressure;Samples;Min_cycle;Max_cycle;Signal;HPM_P1;HPM_P2
2021/01/06 04:10:20;;;;;;;19.67;13.25;;;3.30;99.90;;;;;;5211369;23;20261;-77
2021/01/06 04:12:46;;;;;;;19.35;13.23;;;3.30;99.90;;;;;;4949384;28;20182;-80
2021/01/06 04:15:15;;;;;;;19.92;14.25;;;3.30;99.90;;;;;;4958298;28;20265;-80
2021/01/06 04:17:47;;;;;;;21.60;14.30;;;3.30;99.90;;;;;;4975081;28;20173;-81
2021/01/06 04:20:31;;;;;;;20.98;13.82;;;3.30;99.90;;;;;;4959179;28;20214;-78
2021/01/06 04:23:04;;;;;;;18.65;12.80;;;3.40;99.90;;;;;;4974740;28;20171;-78
2021/01/06 04:25:36;;;;;;;18.42;13.02;;;3.40;99.90;;;;;;4974298;28;20175;-80
2021/01/06 04:28:26;;;;;;;18.08;13.57;;;3.70;99.90;;;;;;4975299;28;20198;-80
2021/01/06 04:31:16;;;;;;;19.63;13.88;;;3.40;99.90;;;;;;4975651;28;20171;-80
2021/01/06 04:33:55;;;;;;;18.50;13.60;;;3.40;99.90;;;;;;4958180;28;20333;-78
2021/01/06 04:36:23;;;;;;;21.65;13.90;;;3.40;99.90;;;;;;4974229;28;20326;-78
2021/01/06 04:38:52;;;;;;;19.25;12.50;;;3.40;99.90;;;;;;4957293;28;20202;-78
2021/01/06 04:41:36;;;;;;;17.67;12.55;;;3.40;99.90;;;;;;4975215;28;20212;-78
2021/01/06 04:44:24;;;;;;;20.77;12.93;;;3.40;99.90;;;;;;4973830;28;20195;-78
2021/01/06 04:47:16;;;;;;;18.27;13.10;;;3.30;99.90;;;;;;4973765;28;20213;-77
2021/01/06 04:49:51;;;;;;;16.45;12.50;;;3.30;99.90;;;;;;4974923;28;20241;-78
2021/01/06 04:52:39;;;;;;;17.65;12.38;;;3.40;99.90;;;;;;4974879;28;20178;-77
2021/01/06 04:55:27;;;;;;;17.15;11.93;;;3.40;99.90;;;;;;4974331;28;20195;-78
2021/01/06 04:57:59;;;;;;;18.08;12.98;;;3.40;99.90;;;;;;4973808;28;20178;-78
2021/01/06 05:00:41;;;;;;;16.30;11.70;;;3.40;99.90;;;;;;4974432;28;20285;-78
2021/01/06 05:03:36;;;;;;;14.82;11.25;;;3.40;99.90;;;;;;4974891;28;20190;-78
2021/01/06 05:06:24;;;;;;;18.38;11.57;;;3.40;99.90;;;;;;4957349;28;20185;-78
2021/01/06 05:08:52;;;;;;;16.38;11.18;;;3.40;99.90;;;;;;4972524;28;20245;-78
2021/01/06 05:11:36;;;;;;;14.43;10.38;;;3.40;99.90;;;;;;4957375;28;20183;-78
2021/01/06 05:14:10;;;;;;;12.48;10.20;;;3.40;99.90;;;;;;4974254;28;20261;-78
2021/01/06 05:16:42;;;;;;;12.60;10.25;;;3.40;99.90;;;;;;4957080;28;20174;-78
2021/01/06 05:19:34;;;;;;;13.32;10.60;;;3.40;99.90;;;;;;4957123;28;20245;-78
2021/01/06 05:22:02;;;;;;;13.50;10.20;;;3.40;99.90;;;;;;4971398;28;20218;-78
2021/01/06 05:24:44;;;;;;;13.10;9.88;;;3.40;99.90;;;;;;4958473;28;20278;-77
2021/01/06 05:27:12;;;;;;;13.27;9.55;;;3.40;99.90;;;;;;4974267;28;20178;-78
2021/01/06 05:29:40;;;;;;;12.38;10.48;;;3.40;99.90;;;;;;4974194;28;20183;-77
2021/01/06 05:32:07;;;;;;;13.70;10.32;;;3.40;99.90;;;;;;4974386;28;20174;-78
2021/01/06 05:34:35;;;;;;;12.23;9.65;;;3.30;99.90;;;;;;4974011;28;20245;-77
2021/01/06 05:37:01;;;;;;;12.27;9.65;;;3.30;99.90;;;;;;4956519;28;20641;-78
2021/01/06 05:39:29;;;;;;;13.63;10.32;;;3.30;99.90;;;;;;4956542;28;20226;-77
2021/01/06 05:42:04;;;;;;;12.30;10.38;;;3.30;99.90;;;;;;4974003;28;20174;-77
2021/01/06 05:44:31;;;;;;;11.73;9.88;;;3.30;99.90;;;;;;4974264;28;20265;-78
2021/01/06 05:46:58;;;;;;;14.82;10.25;;;3.40;99.90;;;;;;4973694;28;20173;-77
2021/01/06 05:49:30;;;;;;;11.43;9.77;;;3.30;99.90;;;;;;4956464;28;20668;-77
2021/01/06 05:52:00;;;;;;;11.45;9.20;;;3.30;99.90;;;;;;4956690;28;20182;-77
2021/01/06 05:54:55;;;;;;;9.48;8.43;;;3.40;99.90;;;;;;4973204;28;20242;-78
2021/01/06 05:57:57;;;;;;;9.45;7.80;;;3.40;99.90;;;;;;4973774;28;20175;-77
2021/01/06 06:00:50;;;;;;;9.70;8.25;;;3.40;99.90;;;;;;4965840;28;20635;-78
2021/01/06 06:03:22;;;;;;;8.25;7.30;;;3.40;99.90;;;;;;4950185;28;20202;-77
2021/01/06 06:06:06;;;;;;;8.52;7.45;;;3.30;99.90;;;;;;4956331;28;20182;-77
2021/01/06 06:09:10;;;;;;;9.68;7.70;;;3.30;99.90;;;;;;4972901;28;20237;-77
2021/01/06 06:12:33;;;;;;;9.00;7.70;;;3.40;99.90;;;;;;4973180;28;20174;-77
2021/01/06 06:15:14;;;;;;;8.00;7.18;;;3.30;99.90;;;;;;4914535;29;20291;-78
2021/01/06 06:17:51;;;;;;;7.60;6.90;;;3.40;99.90;;;;;;4898136;29;20183;-77
2021/01/06 06:20:32;;;;;;;9.25;7.25;;;3.30;99.90;;;;;;4952322;28;20249;-77
2021/01/06 06:23:20;;;;;;;8.52;6.93;;;3.20;99.90;;;;;;4973419;28;20174;-77
2021/01/06 06:26:16;;;;;;;8.80;7.13;;;3.30;99.90;;;;;;4972499;28;20198;-77
2021/01/06 06:29:04;;;;;;;8.68;7.30;;;3.30;99.90;;;;;;4945366;28;20207;-77
2021/01/06 06:31:33;;;;;;;9.52;7.90;;;3.30;99.90;;;;;;4972834;28;20205;-77
2021/01/06 06:34:02;;;;;;;8.40;7.60;;;3.30;99.90;;;;;;4973443;28;20190;-77
2021/01/06 06:36:32;;;;;;;11.50;9.15;;;3.30;99.90;;;;;;4955259;28;20418;-77
2021/01/06 06:39:12;;;;;;;10.95;9.25;;;3.30;99.90;;;;;;4955376;28;20244;-77
2021/01/06 06:41:40;;;;;;;12.63;8.77;;;3.30;99.90;;;;;;4973202;28;20190;-77
2021/01/06 06:44:28;;;;;;;10.07;8.50;;;3.30;99.90;;;;;;4972542;28;20274;-77
2021/01/06 06:46:58;;;;;;;10.60;8.98;;;3.20;99.90;;;;;;4955839;28;20185;-78
2021/01/06 06:50:05;;;;;;;11.32;8.90;;;3.30;99.90;;;;;;4955343;28;20217;-78
2021/01/06 06:52:59;;;;;;;12.23;9.10;;;3.30;99.90;;;;;;4950396;28;20190;-78
2021/01/06 06:56:07;;;;;;;12.85;10.07;;;3.30;99.90;;;;;;4955239;28;20183;-78
2021/01/06 06:58:39;;;;;;;10.77;8.95;;;3.30;99.90;;;;;;4886466;29;20200;-78
2021/01/06 07:01:08;;;;;;;10.93;9.63;;;3.30;99.90;;;;;;4945638;28;20221;-76
2021/01/06 07:03:37;;;;;;;11.23;9.50;;;3.30;99.90;;;;;;4973167;28;20191;-76
2021/01/06 07:06:07;;;;;;;12.50;9.32;;;3.30;99.90;;;;;;4955590;28;20547;-77
2021/01/06 07:08:47;;;;;;;11.95;9.30;;;3.30;99.90;;;;;;4972109;28;20222;-76
2021/01/06 07:11:28;;;;;;;11.07;9.43;;;3.30;99.90;;;;;;4955614;28;20210;-77
2021/01/06 07:14:18;;;;;;;10.63;9.13;;;3.30;99.90;;;;;;4955618;28;20342;-77
2021/01/06 07:16:52;;;;;;;9.38;8.20;;;3.30;99.90;;;;;;4972908;28;20545;-77
2021/01/06 07:19:30;;;;;;;9.98;8.98;;;3.30;99.90;;;;;;4972829;28;20190;-77
2021/01/06 07:22:19;;;;;;;10.70;8.82;;;3.30;99.90;;;;;;4973051;28;20175;-76
2021/01/06 07:25:12;;;;;;;9.93;7.97;;;3.30;99.90;;;;;;4954925;28;20464;-77
2021/01/06 07:27:39;;;;;;;8.70;7.38;;;3.30;99.90;;;;;;4955079;28;20179;-76
2021/01/06 07:30:05;;;;;;;6.38;5.85;;;3.30;99.90;;;;;;4954870;28;20691;-77
2021/01/06 07:32:50;;;;;;;5.82;5.18;;;3.30;99.90;;;;;;4955009;28;20183;-76
2021/01/06 07:35:28;;;;;;;5.07;4.43;;;3.30;99.90;;;;;;4955684;28;20197;-76
2021/01/06 07:38:00;;;;;;;5.40;4.90;;;3.20;99.90;;;;;;4958627;28;20208;-77
2021/01/06 07:40:31;;;;;;;4.88;4.40;;;3.30;99.90;;;;;;4975814;28;20214;-77
2021/01/06 07:43:06;;;;;;;4.43;4.03;;;3.30;99.90;;;;;;4959076;28;20170;-77
2021/01/06 07:45:40;;;;;;;4.75;4.35;;;3.30;99.90;;;;;;4975930;28;20221;-77
2021/01/06 07:48:15;;;;;;;4.35;3.95;;;3.10;99.90;;;;;;4976126;28;20201;-76
2021/01/06 07:50:48;;;;;;;4.45;4.05;;;3.30;99.90;;;;;;4976185;28;20175;-77
2021/01/06 07:53:18;;;;;;;5.20;4.80;;;3.30;99.90;;;;;;4975668;28;20187;-76
2021/01/06 07:56:00;;;;;;;5.85;5.25;;;3.30;99.90;;;;;;4976216;28;20653;-76
2021/01/06 07:58:37;;;;;;;5.82;5.28;;;3.30;99.90;;;;;;4975667;28;20198;-76
2021/01/06 08:01:05;;;;;;;5.40;4.90;;;3.30;99.90;;;;;;4974907;28;20214;-76
2021/01/06 08:03:50;;;;;;;6.40;5.80;;;3.30;99.90;;;;;;4975682;28;20242;-77
2021/01/06 08:06:20;;;;;;;6.25;5.50;;;3.40;99.90;;;;;;4958405;28;20186;-77
2021/01/06 08:08:48;;;;;;;6.38;5.78;;;3.30;99.90;;;;;;4936097;29;20238;-77
2021/01/06 08:11:17;;;;;;;7.50;6.80;;;3.40;99.90;;;;;;4938964;29;20641;-77
2021/01/06 08:13:49;;;;;;;7.18;6.45;;;3.30;99.90;;;;;;4955587;28;20274;-76
2021/01/06 08:16:48;;;;;;;9.50;7.80;;;3.40;99.90;;;;;;4956076;29;20175;-77
2021/01/06 08:19:20;;;;;;;8.88;7.80;;;3.40;99.90;;;;;;4938679;29;20286;-77
2021/01/06 08:22:08;;;;;;;9.15;8.25;;;3.40;99.90;;;;;;4938672;29;20226;-77
2021/01/06 08:24:42;;;;;;;9.77;8.77;;;3.60;99.90;;;;;;4937761;29;20203;-77
2021/01/06 08:27:14;;;;;;;9.57;8.57;;;3.40;99.90;;;;;;4956185;29;20229;-77
2021/01/06 08:29:41;;;;;;;10.00;9.00;;;3.40;99.90;;;;;;4938069;29;20823;-76
2021/01/06 08:32:18;;;;;;;10.23;8.43;;;3.40;99.90;;;;;;4944181;29;20175;-77
2021/01/06 08:35:09;;;;;;;10.55;9.07;;;3.40;99.90;;;;;;4937011;29;20199;-77
2021/01/06 08:37:39;;;;;;;9.73;8.50;;;3.40;99.90;;;;;;4955798;29;20181;-80
2021/01/06 08:40:23;;;;;;;10.52;9.40;;;3.40;99.90;;;;;;4941322;28;20209;-80
2021/01/06 08:42:50;;;;;;;9.15;8.23;;;3.40;99.90;;;;;;4964393;28;20179;-81
2021/01/06 08:45:23;;;;;;;9.88;8.88;;;3.40;99.90;;;;;;4947943;28;20179;-82
2021/01/06 08:47:49;;;;;;;9.93;8.93;;;3.40;99.90;;;;;;4947811;28;20215;-80
2021/01/06 08:50:15;;;;;;;9.55;8.32;;;3.50;99.90;;;;;;4963474;28;20207;-80
2021/01/06 08:52:41;;;;;;;9.77;8.48;;;3.40;99.90;;;;;;4965095;28;20175;-78
2021/01/06 08:55:24;;;;;;;11.57;9.30;;;3.50;99.90;;;;;;4964785;28;20186;-79
2021/01/06 08:58:04;;;;;;;9.55;8.52;;;3.50;99.90;;;;;;4958659;28;20190;-80
2021/01/06 09:00:37;;;;;;;10.25;8.95;;;3.50;99.90;;;;;;4960531;28;20206;-78
2021/01/06 09:03:54;;;;;;;9.70;8.70;;;3.40;99.90;;;;;;4963571;28;20708;-81
2021/01/06 09:06:22;;;;;;;9.55;8.65;;;3.60;99.90;;;;;;4942800;28;20262;-76
2021/01/06 09:09:03;;;;;;;10.02;8.75;;;3.50;99.90;;;;;;4951915;28;20230;-77
2021/01/06 09:11:50;;;;;;;9.07;8.00;;;3.50;99.90;;;;;;4981824;28;20166;-76
2021/01/06 09:14:16;;;;;;;9.57;8.57;;;3.50;99.90;;;;;;4993990;28;20194;-75
2021/01/06 09:16:47;;;;;;;9.35;8.40;;;3.40;99.90;;;;;;4993760;28;20173;-78
2021/01/06 09:19:47;;;;;;;8.80;7.90;;;3.50;99.90;;;;;;4966096;28;20278;-78
2021/01/06 09:22:14;;;;;;;10.40;9.23;;;3.50;99.90;;;;;;4983968;28;20173;-77
2021/01/06 09:24:42;;;;;;;10.57;8.60;;;3.50;99.90;;;;;;4972427;28;20219;-75
2021/01/06 09:27:33;;;;;;;12.00;9.68;;;3.40;99.90;;;;;;4993855;28;20260;-76
2021/01/06 09:30:03;;;;;;;10.32;9.23;;;3.40;99.90;;;;;;4974328;28;20702;-76
2021/01/06 09:32:34;;;;;;;11.80;10.38;;;3.50;99.90;;;;;;4973966;28;20174;-79
2021/01/06 09:35:10;;;;;;;11.88;10.60;;;3.50;99.90;;;;;;4974054;28;20190;-77
2021/01/06 09:37:38;;;;;;;12.02;10.82;;;3.40;99.90;;;;;;4963883;28;20186;-75
2021/01/06 09:40:19;;;;;;;12.15;10.70;;;3.50;99.90;;;;;;4983242;28;20205;-75
2021/01/06 09:43:05;;;;;;;13.52;11.13;;;3.50;99.90;;;;;;4982096;28;20508;-76
2021/01/06 09:45:31;;;;;;;12.77;10.98;;;3.50;99.90;;;;;;4963793;28;20178;-76
2021/01/06 09:48:03;;;;;;;11.48;10.27;;;3.40;99.90;;;;;;4993154;28;20177;-78
2021/01/06 09:50:35;;;;;;;12.50;10.65;;;3.40;99.90;;;;;;4989228;28;20241;-77
2021/01/06 09:53:08;;;;;;;15.20;11.68;;;3.40;99.90;;;;;;4983859;28;20529;-77
2021/01/06 09:55:36;;;;;;;12.48;11.15;;;3.40;99.90;;;;;;4983262;28;20273;-78
2021/01/06 09:58:07;;;;;;;15.52;12.90;;;3.40;99.90;;;;;;4969572;28;20209;-78
2021/01/06 10:01:10;;;;;;;15.35;12.95;;;3.40;99.90;;;;;;4993268;28;20671;-76
2021/01/06 10:03:39;;;;;;;13.95;11.82;;;3.40;99.90;;;;;;4987046;28;20205;-78
2021/01/06 10:06:23;;;;;;;16.20;13.20;;;3.40;99.90;;;;;;4992964;28;20205;-78
2021/01/06 10:08:59;;;;;;;15.70;13.02;;;3.40;99.90;;;;;;4969783;28;20242;-82
2021/01/06 10:11:40;;;;;;;16.05;13.32;;;3.40;99.90;;;;;;4974258;28;20182;-79
2021/01/06 10:14:21;;;;;;;15.05;12.55;;;3.40;99.90;;;;;;4955417;28;20665;-75
2021/01/06 10:17:14;;;;;;;16.05;12.82;;;3.40;99.90;;;;;;4955355;28;20194;-78
2021/01/06 10:20:20;;;;;;;19.95;14.55;;;3.40;99.90;;;;;;4946607;28;20226;-77
2021/01/06 10:22:55;;;;;;;17.73;13.80;;;3.40;99.90;;;;;;4964305;28;20218;-74
2021/01/06 10:25:39;;;;;;;17.33;14.63;;;3.40;99.90;;;;;;4949644;28;20700;-76
2021/01/06 10:28:23;;;;;;;17.98;13.82;;;3.30;99.90;;;;;;4948752;28;20664;-76
2021/01/06 10:30:59;;;;;;;18.13;14.73;;;3.30;99.90;;;;;;4961859;28;20186;-77
2021/01/06 10:33:24;;;;;;;17.10;13.38;;;3.40;99.90;;;;;;4942343;28;20248;-78
2021/01/06 10:35:56;;;;;;;17.15;14.18;;;3.40;99.90;;;;;;4946644;28;20629;-78
2021/01/06 10:38:36;;;;;;;17.38;13.90;;;3.40;99.90;;;;;;4969010;28;20298;-76
2021/01/06 10:41:26;;;;;;;16.27;13.38;;;3.30;99.90;;;;;;4950422;28;20232;-76
2021/01/06 10:44:01;;;;;;;16.65;12.70;;;3.40;99.90;;;;;;4954798;28;20206;-77
2021/01/06 10:46:48;;;;;;;17.70;13.27;;;3.40;99.90;;;;;;4971950;28;20209;-76
2021/01/06 10:49:20;;;;;;;18.60;14.35;;;4.30;99.90;;;;;;4955643;28;20257;-75
2021/01/06 10:51:58;;;;;;;17.90;13.52;;;3.30;99.90;;;;;;4941770;28;20178;-75
2021/01/06 10:55:06;;;;;;;17.88;14.63;;;3.30;99.90;;;;;;4955246;28;20190;-75
2021/01/06 10:57:46;;;;;;;15.70;12.95;;;3.40;99.90;;;;;;4960774;28;20288;-76
2021/01/06 11:00:17;;;;;;;15.65;13.77;;;3.40;99.90;;;;;;4971339;28;20342;-76
2021/01/06 11:02:49;;;;;;;19.98;15.95;;;3.30;99.90;;;;;;4949494;28;20180;-76
2021/01/06 11:05:26;;;;;;;20.10;14.25;;;3.40;99.90;;;;;;4963453;28;20183;-75
2021/01/06 11:08:10;;;;;;;17.23;13.88;;;3.40;99.90;;;;;;4943895;28;20596;-76
2021/01/06 11:10:45;;;;;;;17.67;13.82;;;3.40;99.90;;;;;;4969935;28;20185;-76
2021/01/06 11:13:47;;;;;;;18.42;15.02;;;3.40;99.90;;;;;;4974466;28;20251;-76
2021/01/06 11:16:18;;;;;;;19.27;14.57;;;3.40;99.90;;;;;;4960277;28;20209;-78
2021/01/06 11:18:47;;;;;;;17.60;14.82;;;3.30;99.90;;;;;;4978883;28;20225;-75
2021/01/06 11:21:23;;;;;;;20.58;14.70;;;3.40;99.90;;;;;;4980083;28;20210;-75
2021/01/06 11:24:00;;;;;;;19.38;14.88;;;3.30;99.90;;;;;;4975598;28;20192;-75
2021/01/06 11:26:31;;;;;;;20.33;15.90;;;3.40;99.90;;;;;;4959321;28;20190;-76
2021/01/06 11:29:15;;;;;;;18.20;14.68;;;3.50;99.90;;;;;;4976345;28;20197;-76
2021/01/06 11:32:00;;;;;;;18.33;14.25;;;3.30;99.90;;;;;;4983121;28;20257;-78
2021/01/06 11:34:33;;;;;;;18.48;14.65;;;3.30;99.90;;;;;;4984908;28;20289;-80
2021/01/06 11:37:02;;;;;;;20.60;15.25;;;3.30;99.90;;;;;;4968237;28;20261;-77
2021/01/06 11:39:27;;;;;;;20.35;14.68;;;3.30;99.90;;;;;;4970910;28;20198;-75
2021/01/06 11:42:00;;;;;;;20.92;16.02;;;3.60;99.90;;;;;;4976676;28;20170;-79
2021/01/06 11:44:35;;;;;;;19.75;14.57;;;3.40;99.90;;;;;;4970917;28;20679;-77
2021/01/06 11:47:19;;;;;;;20.05;14.95;;;3.30;99.90;;;;;;4976534;28;20173;-80
2021/01/06 11:49:55;;;;;;;19.17;15.23;;;3.30;99.90;;;;;;4985291;28;20201;-76
2021/01/06 11:52:50;;;;;;;19.80;14.90;;;3.30;99.90;;;;;;4960536;28;20182;-76
2021/01/06 11:55:16;;;;;;;18.98;15.18;;;3.40;99.90;;;;;;4894153;29;20225;-77
2021/01/06 11:58:10;;;;;;;20.98;14.82;;;3.40;99.90;;;;;;4880047;29;20702;-77
2021/01/06 12:00:42;;;;;;;21.67;15.32;;;3.40;99.90;;;;;;4878560;29;20711;-77
2021/01/06 12:03:08;;;;;;;20.38;14.80;;;3.30;99.90;;;;;;4895612;29;20204;-77
2021/01/06 12:06:03;;;;;;;20.05;15.18;;;3.40;99.90;;;;;;4896244;29;20202;-76
2021/01/06 12:08:50;;;;;;;21.77;15.07;;;3.40;99.90;;;;;;4878376;29;20272;-76
2021/01/06 12:11:41;;;;;;;19.75;15.50;;;3.40;99.90;;;;;;4878963;29;20267;-72
2021/01/06 12:14:41;;;;;;;21.80;15.52;;;3.40;99.90;;;;;;4895415;29;20193;-73
2021/01/06 12:17:29;;;;;;;21.00;15.23;;;3.10;99.90;;;;;;4896710;29;20193;-73
2021/01/06 12:20:05;;;;;;;21.52;15.70;;;3.60;99.90;;;;;;4881223;29;20241;-72
2021/01/06 12:22:32;;;;;;;22.42;15.82;;;3.40;99.90;;;;;;4895762;29;20192;-73
2021/01/06 12:25:03;;;;;;;19.90;15.20;;;3.30;99.90;;;;;;4880653;29;20676;-73
2021/01/06 12:28:02;;;;;;;20.33;14.95;;;3.30;99.90;;;;;;4881134;29;20178;-73
2021/01/06 12:30:50;;;;;;;22.80;16.10;;;3.40;99.90;;;;;;4881119;29;20314;-73
2021/01/06 12:33:35;;;;;;;19.17;15.73;;;3.10;99.90;;;;;;4975501;28;20195;-73
2021/01/06 12:36:22;;;;;;;24.00;15.40;;;3.40;99.90;;;;;;4975048;28;20174;-73
2021/01/06 12:38:50;;;;;;;23.45;15.80;;;3.50;99.90;;;;;;4957619;28;20198;-76
2021/01/06 12:41:22;;;;;;;20.45;16.00;;;3.40;99.90;;;;;;4957609;28;20687;-75
2021/01/06 12:43:57;;;;;;;21.73;16.02;;;3.40;99.90;;;;;;4958137;28;20238;-75
2021/01/06 12:46:30;;;;;;;21.02;14.95;;;3.30;99.90;;;;;;4975189;28;20724;-76
2021/01/06 12:49:10;;;;;;;20.48;15.55;;;3.40;99.90;;;;;;4957853;28;20199;-76
2021/01/06 12:51:41;;;;;;;19.08;15.48;;;3.40;99.90;;;;;;4974876;28;20625;-74
2021/01/06 12:54:15;;;;;;;19.77;15.43;;;3.40;99.90;;;;;;4957330;28;20197;-76
2021/01/06 12:56:44;;;;;;;22.33;15.80;;;3.40;99.90;;;;;;4975395;28;20253;-75
2021/01/06 12:59:15;;;;;;;19.27;15.13;;;3.40;99.90;;;;;;4974987;28;20187;-76
2021/01/06 13:01:47;;;;;;;18.60;14.18;;;3.40;99.90;;;;;;4974177;28;20185;-75
2021/01/06 13:04:16;;;;;;;20.13;15.23;;;3.50;99.90;;;;;;4956822;28;20281;-75
2021/01/06 13:06:56;;;;;;;18.92;13.75;;;3.40;99.90;;;;;;4957537;28;20171;-76
2021/01/06 13:09:41;;;;;;;19.63;14.98;;;3.40;99.90;;;;;;4946296;28;20231;-76
2021/01/06 13:12:09;;;;;;;19.45;14.90;;;3.40;99.90;;;;;;4955471;29;20183;-75
2021/01/06 13:14:35;;;;;;;16.95;13.93;;;3.50;99.90;;;;;;4938092;29;20639;-76
2021/01/06 13:17:23;;;;;;;18.90;14.25;;;3.50;99.90;;;;;;4955432;29;20171;-75
2021/01/06 13:20:11;;;;;;;18.33;13.57;;;3.50;99.90;;;;;;4964202;28;20692;-76
2021/01/06 13:22:43;;;;;;;20.20;15.38;;;3.50;99.90;;;;;;4947915;28;20261;-79
2021/01/06 13:25:27;;;;;;;17.90;13.50;;;3.50;99.90;;;;;;4946320;28;20206;-74
2021/01/06 13:27:52;;;;;;;20.60;17.50;;;3.50;99.90;;;;;;4961938;28;20582;-74
2021/01/06 13:30:29;;;;;;;20.10;15.48;;;3.40;99.90;;;;;;4964965;28;20570;-74
2021/01/06 13:33:11;;;;;;;18.02;14.98;;;3.50;99.90;;;;;;4966540;28;20179;-75
2021/01/06 13:35:57;;;;;;;16.38;12.88;;;3.50;99.90;;;;;;4948200;28;20194;-76
2021/01/06 13:38:31;;;;;;;18.65;13.75;;;3.50;99.90;;;;;;4947206;28;20289;-75
2021/01/06 13:41:01;;;;;;;17.17;13.48;;;3.50;99.90;;;;;;4962813;28;20715;-75
2021/01/06 13:43:33;;;;;;;18.15;13.32;;;3.50;99.90;;;;;;4962594;28;20199;-75
2021/01/06 13:46:30;;;;;;;17.73;13.88;;;3.60;99.90;;;;;;4946281;28;20285;-76
2021/01/06 13:49:27;;;;;;;17.88;13.27;;;3.50;99.90;;;;;;4941391;29;20231;-74
2021/01/06 13:52:22;;;;;;;16.88;13.30;;;3.50;99.90;;;;;;4954419;29;20186;-76
2021/01/06 13:55:01;;;;;;;16.90;13.13;;;3.50;99.90;;;;;;4938844;29;20199;-76
2021/01/06 13:57:49;;;;;;;16.45;13.90;;;3.50;99.90;;;;;;4936065;29;20645;-75
2021/01/06 14:00:36;;;;;;;21.70;14.57;;;3.50;99.90;;;;;;4953611;29;20219;-75
2021/01/06 14:03:02;;;;;;;25.20;15.23;;;3.50;99.90;;;;;;4953367;28;20258;-76
2021/01/06 14:05:31;;;;;;;22.83;14.77;;;3.50;99.90;;;;;;4935931;29;20274;-76
2021/01/06 14:08:19;;;;;;;17.67;12.73;;;3.50;99.90;;;;;;4936752;28;20172;-76
2021/01/06 14:11:17;;;;;;;20.83;14.07;;;3.50;99.90;;;;;;4976454;28;20229;-77
2021/01/06 14:14:08;;;;;;;20.20;13.90;;;3.50;99.90;;;;;;4950278;28;20209;-76
2021/01/06 14:17:05;;;;;;;16.92;13.38;;;3.50;99.90;;;;;;4956241;28;20524;-76
2021/01/06 14:19:51;;;;;;;20.85;13.25;;;3.50;99.90;;;;;;4972254;28;20548;-76
2021/01/06 14:22:39;;;;;;;18.92;12.63;;;3.50;99.90;;;;;;4973375;28;20225;-76
2021/01/06 14:25:29;;;;;;;18.20;12.57;;;4.50;99.90;;;;;;4946327;28;20207;-76
2021/01/06 14:28:02;;;;;;;17.63;13.10;;;3.40;99.90;;;;;;4955793;28;20185;-76
2021/01/06 14:30:34;;;;;;;18.50;13.27;;;3.40;99.90;;;;;;4956189;28;20659;-77
2021/01/06 14:33:20;;;;;;;16.10;12.10;;;3.40;99.90;;;;;;4955837;28;20174;-77
2021/01/06 14:35:53;;;;;;;15.52;12.15;;;3.50;99.90;;;;;;4956049;28;20240;-77
2021/01/06 14:38:55;;;;;;;15.90;12.13;;;3.40;99.90;;;;;;4955594;28;20205;-76
2021/01/06 14:41:44;;;;;;;18.40;13.38;;;3.40;99.90;;;;;;4973151;28;20237;-76
2021/01/06 14:44:24;;;;;;;17.25;12.68;;;3.40;99.90;;;;;;4973350;28;20193;-76
2021/01/06 14:47:24;;;;;;;16.35;13.57;;;3.40;99.90;;;;;;4972685;28;20634;-76
2021/01/06 14:50:20;;;;;;;16.13;12.35;;;3.40;99.90;;;;;;4969848;28;20297;-76
2021/01/06 14:53:04;;;;;;;15.88;11.98;;;3.60;99.90;;;;;;4972776;28;20273;-76
2021/01/06 14:55:36;;;;;;;14.95;11.63;;;3.40;99.90;;;;;;4964333;28;20268;-76
2021/01/06 14:58:26;;;;;;;16.83;12.02;;;3.40;99.90;;;;;;4992295;28;20177;-73
2021/01/06 15:01:29;;;;;;;16.17;11.82;;;3.40;99.90;;;;;;4968090;28;20678;-76
2021/01/06 15:04:16;;;;;;;14.60;11.15;;;3.30;99.90;;;;;;4985848;28;20218;-75
2021/01/06 15:06:48;;;;;;;16.75;12.18;;;3.30;99.90;;;;;;4983423;28;20225;-74
2021/01/06 15:09:45;;;;;;;13.40;11.45;;;3.40;99.90;;;;;;4953899;28;20227;-74
2021/01/06 15:12:18;;;;;;;15.07;12.15;;;3.30;99.90;;;;;;4962621;28;20183;-76
2021/01/06 15:14:51;;;;;;;16.10;12.07;;;3.30;99.90;;;;;;4961714;28;20242;-76
2021/01/06 15:17:24;;;;;;;15.90;11.68;;;3.40;99.90;;;;;;4944239;28;20250;-76
2021/01/06 15:20:15;;;;;;;13.65;11.30;;;4.40;99.90;;;;;;4948861;28;20230;-76
2021/01/06 15:22:45;;;;;;;15.30;11.40;;;4.20;99.90;;;;;;4962211;28;20270;-77
2021/01/06 15:25:38;;;;;;;16.10;11.73;;;3.30;99.90;;;;;;4963147;28;20172;-74
2021/01/06 15:28:13;;;;;;;16.05;11.45;;;3.30;99.90;;;;;;4963494;28;20198;-77
2021/01/06 15:31:05;;;;;;;13.57;11.45;;;3.30;99.90;;;;;;4954788;28;20180;-76
2021/01/06 15:33:31;;;;;;;17.38;15.52;;;3.30;99.90;;;;;;4947867;28;20418;-75
2021/01/06 15:36:06;;;;;;;18.08;13.48;;;3.30;99.90;;;;;;4961253;28;20227;-78
2021/01/06 15:38:33;;;;;;;14.25;12.35;;;3.30;99.90;;;;;;4963664;28;20281;-73
2021/01/06 15:41:04;;;;;;;17.35;12.65;;;3.30;99.90;;;;;;4944364;28;20297;-74
2021/01/06 15:43:44;;;;;;;17.10;12.80;;;3.20;99.90;;;;;;4947701;28;20206;-75
2021/01/06 15:46:16;;;;;;;16.45;12.20;;;3.20;99.90;;;;;;4952248;28;20584;-75
2021/01/06 15:48:42;;;;;;;13.93;11.52;;;3.20;99.90;;;;;;4954514;28;20194;-75
2021/01/06 15:51:18;;;;;;;15.43;12.32;;;3.20;99.90;;;;;;4950250;28;20182;-77
2021/01/06 15:53:46;;;;;;;13.23;11.07;;;3.20;99.90;;;;;;4935529;29;20202;-75
2021/01/06 15:56:16;;;;;;;14.45;11.98;;;3.20;99.90;;;;;;4956565;28;20175;-74
2021/01/06 15:58:42;;;;;;;15.55;11.68;;;3.20;99.90;;;;;;4963393;28;20630;-79
2021/01/06 16:01:16;;;;;;;14.23;11.25;;;3.30;99.90;;;;;;4963128;28;20568;-79
2021/01/06 16:03:57;;;;;;;13.90;10.95;;;3.20;99.90;;;;;;4971355;28;20685;-77
2021/01/06 16:06:29;;;;;;;15.05;11.75;;;3.20;99.90;;;;;;4964407;28;20189;-78
2021/01/06 16:08:55;;;;;;;14.52;11.48;;;3.20;99.90;;;;;;4951995;28;20233;-77
2021/01/06 16:11:21;;;;;;;13.52;11.05;;;3.20;99.90;;;;;;4972843;28;20175;-77
2021/01/06 16:13:52;;;;;;;15.98;12.25;;;3.20;99.90;;;;;;4974474;28;20195;-78
2021/01/06 16:16:26;;;;;;;15.50;12.05;;;3.20;99.90;;;;;;4975943;28;20171;-75
2021/01/06 16:18:59;;;;;;;14.30;12.60;;;3.20;99.90;;;;;;4974689;28;20197;-75
2021/01/06 16:21:28;;;;;;;15.20;11.73;;;3.10;99.90;;;;;;4954278;28;20252;-74
2021/01/06 16:23:56;;;;;;;14.98;11.30;;;3.20;99.90;;;;;;4956105;28;20410;-73
2021/01/06 16:26:34;;;;;;;14.38;12.02;;;3.30;99.90;;;;;;4956796;28;20187;-74
2021/01/06 16:29:03;;;;;;;14.63;11.65;;;3.20;99.90;;;;;;4973455;28;20206;-73
2021/01/06 16:31:42;;;;;;;13.30;11.00;;;3.20;99.90;;;;;;4957377;28;20630;-73
2021/01/06 16:34:26;;;;;;;14.18;10.93;;;3.20;99.90;;;;;;4974312;28;20190;-74
2021/01/06 16:37:08;;;;;;;16.80;12.48;;;3.20;99.90;;;;;;4972557;28;20241;-72
2021/01/06 16:39:35;;;;;;;14.45;11.93;;;3.20;99.90;;;;;;4972094;28;20226;-73
2021/01/06 16:42:05;;;;;;;14.85;11.57;;;3.30;99.90;;;;;;4974241;28;20198;-73
2021/01/06 16:44:37;;;;;;;14.27;11.57;;;3.20;99.90;;;;;;4974643;28;20594;-74
2021/01/06 16:47:06;;;;;;;14.48;10.75;;;3.20;99.90;;;;;;4957823;28;20202;-73
2021/01/06 16:49:35;;;;;;;15.05;11.07;;;3.20;99.90;;;;;;4974250;28;20700;-73
2021/01/06 16:52:09;;;;;;;13.95;10.48;;;3.20;99.90;;;;;;4971433;28;20500;-72
2021/01/06 16:54:39;;;;;;;13.45;11.32;;;3.30;99.90;;;;;;4972382;28;20533;-73
2021/01/06 16:57:23;;;;;;;13.55;11.60;;;3.20;99.90;;;;;;4973810;28;20222;-74
2021/01/06 16:59:49;;;;;;;13.55;11.75;;;3.20;99.90;;;;;;4954290;28;20217;-72
2021/01/06 17:02:20;;;;;;;14.38;11.82;;;3.30;99.90;;;;;;4970128;28;20205;-73
2021/01/06 17:04:47;;;;;;;14.85;11.73;;;3.30;99.90;;;;;;4972554;28;20751;-73
2021/01/06 17:07:34;;;;;;;13.52;11.07;;;3.30;99.90;;;;;;4956305;28;20181;-73
2021/01/06 17:10:06;;;;;;;14.48;12.02;;;3.20;99.90;;;;;;4972735;28;20258;-73
2021/01/06 17:12:34;;;;;;;14.55;11.45;;;3.30;99.90;;;;;;4956171;28;20594;-73
2021/01/06 17:15:00;;;;;;;13.90;11.85;;;3.30;99.90;;;;;;4973349;28;20214;-73
2021/01/06 17:17:32;;;;;;;12.98;11.57;;;3.30;99.90;;;;;;4955864;28;20840;-71
2021/01/06 17:20:04;;;;;;;14.35;11.40;;;3.30;99.90;;;;;;4973437;28;20265;-75
2021/01/06 17:22:35;;;;;;;15.38;11.75;;;3.30;99.90;;;;;;4956268;28;20608;-73
2021/01/06 17:25:08;;;;;;;13.35;11.93;;;3.30;99.90;;;;;;4956267;28;20213;-73
2021/01/06 17:27:46;;;;;;;13.65;11.27;;;3.30;99.90;;;;;;4973341;28;20210;-73
2021/01/06 17:30:23;;;;;;;13.27;11.15;;;3.30;99.90;;;;;;4973068;28;20174;-72
2021/01/06 17:33:12;;;;;;;13.45;10.35;;;3.30;99.90;;;;;;4972792;28;20305;-73
2021/01/06 17:35:37;;;;;;;12.98;10.85;;;3.30;99.90;;;;;;4949120;28;20183;-73
2021/01/06 17:38:04;;;;;;;13.98;11.27;;;3.30;99.90;;;;;;4956650;28;20210;-76
2021/01/06 17:40:31;;;;;;;13.32;11.45;;;3.30;99.90;;;;;;4974650;28;20214;-77
2021/01/06 17:43:01;;;;;;;13.27;11.60;;;3.30;99.90;;;;;;4973795;28;20170;-77
2021/01/06 17:45:33;;;;;;;13.82;11.25;;;3.30;99.90;;;;;;4956736;28;20174;-79